createdAt,value
2018-03-23T00:00:39.826Z,18.75
2018-03-23T00:01:39.775Z,19
2018-03-23T00:02:39.808Z,19
2018-03-23T00:03:39.769Z,18.75
2018-03-23T00:04:39.799Z,19
2018-03-23T00:05:39.773Z,19
2018-03-23T00:06:39.774Z,18.75
2018-03-23T00:07:40.046Z,19
2018-03-23T00:08:39.818Z,19
2018-03-23T00:09:39.762Z,18.75
2018-03-23T00:10:39.762Z,19
2018-03-23T00:11:39.783Z,19
2018-03-23T00:12:39.786Z,18.75
2018-03-23T00:13:39.777Z,19
2018-03-23T00:14:39.879Z,19
2018-03-23T00:15:39.786Z,18.75
2018-03-23T00:16:39.768Z,19
2018-03-23T00:17:39.810Z,19
2018-03-23T00:18:39.788Z,18.5
2018-03-23T00:19:39.790Z,19
2018-03-23T00:20:39.751Z,19
2018-03-23T00:21:39.780Z,18.75
2018-03-23T00:22:39.775Z,19
2018-03-23T00:23:39.774Z,19
2018-03-23T00:24:39.738Z,18.75
2018-03-23T00:25:39.748Z,19
2018-03-23T00:26:39.749Z,19
2018-03-23T00:27:39.767Z,18.5
2018-03-23T00:28:39.742Z,19
2018-03-23T00:29:39.775Z,19
2018-03-23T00:30:39.773Z,18.5
2018-03-23T00:31:40.025Z,18.75
2018-03-23T00:32:39.752Z,19
2018-03-23T00:33:39.791Z,18.75
2018-03-23T00:34:39.781Z,18.75
2018-03-23T00:35:39.740Z,19
2018-03-23T00:36:39.767Z,18.5
2018-03-23T00:37:39.750Z,18.75
2018-03-23T00:38:39.744Z,18.75
2018-03-23T00:39:39.735Z,18.5
2018-03-23T00:40:39.740Z,18.75
2018-03-23T00:41:39.769Z,18.75
2018-03-23T00:42:39.786Z,18.5
2018-03-23T00:43:39.746Z,18.75
2018-03-23T00:44:39.756Z,19
2018-03-23T00:45:39.757Z,18.5
2018-03-23T00:46:39.776Z,18.75
2018-03-23T00:47:39.810Z,18.75
2018-03-23T00:48:39.767Z,18.5
2018-03-23T00:49:39.782Z,18.75
2018-03-23T00:50:39.779Z,18.75
2018-03-23T00:51:39.792Z,18.5
2018-03-23T00:52:39.791Z,18.75
2018-03-23T00:53:39.751Z,18.75
2018-03-23T00:54:39.759Z,18.5
2018-03-23T00:55:39.742Z,18.75
2018-03-23T00:56:39.768Z,18.75
2018-03-23T00:57:39.747Z,18.5
2018-03-23T00:58:39.761Z,18.75
2018-03-23T00:59:39.774Z,18.75
2018-03-23T01:00:39.761Z,18.5
2018-03-23T01:01:39.765Z,18.75
2018-03-23T01:02:39.745Z,18.75
2018-03-23T01:03:39.776Z,18.5
2018-03-23T01:04:39.726Z,18.75
2018-03-23T01:05:39.756Z,18.75
2018-03-23T01:06:39.782Z,18.5
2018-03-23T01:07:39.744Z,18.75
2018-03-23T01:08:39.741Z,18.75
2018-03-23T01:09:39.759Z,18.5
2018-03-23T01:10:39.778Z,18.75
2018-03-23T01:11:39.761Z,18.75
2018-03-23T01:12:39.783Z,18.5
2018-03-23T01:13:39.785Z,18.75
2018-03-23T01:14:39.764Z,18.75
2018-03-23T01:15:39.709Z,18.5
2018-03-23T01:16:39.745Z,18.75
2018-03-23T01:17:39.734Z,18.75
2018-03-23T01:18:39.744Z,18.5
2018-03-23T01:19:39.747Z,18.75
2018-03-23T01:20:39.747Z,18.75
2018-03-23T01:21:39.752Z,18.5
2018-03-23T01:22:39.775Z,18.75
2018-03-23T01:23:39.746Z,18.75
2018-03-23T01:24:39.725Z,18.5
2018-03-23T01:25:39.768Z,18.75
2018-03-23T01:26:39.753Z,18.75
2018-03-23T01:27:39.751Z,18.5
2018-03-23T01:28:39.723Z,18.75
2018-03-23T01:29:39.745Z,18.75
2018-03-23T01:30:39.736Z,18.5
2018-03-23T01:31:39.734Z,18.75
2018-03-23T01:32:39.760Z,18.75
2018-03-23T01:33:39.764Z,18.5
2018-03-23T01:34:39.731Z,18.75
2018-03-23T01:35:39.726Z,18.75
2018-03-23T01:36:39.720Z,18.5
2018-03-23T01:37:39.793Z,18.75
2018-03-23T01:38:39.744Z,18.75
2018-03-23T01:39:39.735Z,18.25
2018-03-23T01:40:39.751Z,18.75
2018-03-23T01:41:39.736Z,18.75
2018-03-23T01:42:39.759Z,18.25
2018-03-23T01:43:39.744Z,18.75
2018-03-23T01:44:39.741Z,18.75
2018-03-23T01:45:39.742Z,18.5
2018-03-23T01:46:39.746Z,18.75
2018-03-23T01:47:39.720Z,18.75
2018-03-23T01:48:39.728Z,18.5
2018-03-23T01:49:39.747Z,18.75
2018-03-23T01:50:39.742Z,18.75
2018-03-23T01:51:39.746Z,18.25
2018-03-23T01:52:39.729Z,18.75
2018-03-23T01:53:39.750Z,18.75
2018-03-23T01:54:39.724Z,18.25
2018-03-23T01:55:39.975Z,18.5
2018-03-23T01:56:39.747Z,18.75
2018-03-23T01:57:39.743Z,18.25
2018-03-23T01:58:39.721Z,18.5
2018-03-23T01:59:39.723Z,18.75
2018-03-23T02:00:39.773Z,18.25
2018-03-23T02:01:39.742Z,18.5
2018-03-23T02:02:39.742Z,18.75
2018-03-23T02:03:39.722Z,18.25
2018-03-23T02:04:39.749Z,18.5
2018-03-23T02:05:39.728Z,18.75
2018-03-23T02:06:39.802Z,18.25
2018-03-23T02:07:39.759Z,18.5
2018-03-23T02:08:39.717Z,18.75
2018-03-23T02:09:39.723Z,18.25
2018-03-23T02:10:39.728Z,18.5
2018-03-23T02:11:39.713Z,18.75
2018-03-23T02:12:39.728Z,18.25
2018-03-23T02:13:39.755Z,18.5
2018-03-23T02:14:39.912Z,18.5
2018-03-23T02:15:39.841Z,18.25
2018-03-23T02:16:39.732Z,18.5
2018-03-23T02:17:39.737Z,18.5
2018-03-23T02:18:39.725Z,18.25
2018-03-23T02:19:39.708Z,18.5
2018-03-23T02:20:39.750Z,18.5
2018-03-23T02:21:39.737Z,18.25
2018-03-23T02:22:39.718Z,18.5
2018-03-23T02:23:39.726Z,18.5
2018-03-23T02:24:39.724Z,18.25
2018-03-23T02:25:39.711Z,18.5
2018-03-23T02:26:39.713Z,18.5
2018-03-23T02:27:39.734Z,18.25
2018-03-23T02:28:39.717Z,18.5
2018-03-23T02:29:39.693Z,18.5
2018-03-23T02:30:39.794Z,18.25
2018-03-23T02:31:39.717Z,18.5
2018-03-23T02:32:39.721Z,18.5
2018-03-23T02:33:39.742Z,18.25
2018-03-23T02:34:39.748Z,18.5
2018-03-23T02:35:39.752Z,18.5
2018-03-23T02:36:39.729Z,18.25
2018-03-23T02:37:39.730Z,18.5
2018-03-23T02:38:39.747Z,18.5
2018-03-23T02:39:39.757Z,18.25
2018-03-23T02:40:39.753Z,18.5
2018-03-23T02:41:39.756Z,18.5
2018-03-23T02:42:39.757Z,18.25
2018-03-23T02:43:39.755Z,18.5
2018-03-23T02:44:39.769Z,18.5
2018-03-23T02:45:39.734Z,18.25
2018-03-23T02:46:39.736Z,18.5
2018-03-23T02:47:39.732Z,18.5
2018-03-23T02:48:39.744Z,18.25
2018-03-23T02:49:39.775Z,18.5
2018-03-23T02:50:39.747Z,18.5
2018-03-23T02:51:39.734Z,18.25
2018-03-23T02:52:39.750Z,18.5
2018-03-23T02:53:39.741Z,18.5
2018-03-23T02:54:39.738Z,18.25
2018-03-23T02:55:39.729Z,18.5
2018-03-23T02:56:39.715Z,18.5
2018-03-23T02:57:39.721Z,18.25
2018-03-23T02:58:39.712Z,18.5
2018-03-23T02:59:39.780Z,18.5
2018-03-23T03:00:39.717Z,18.25
2018-03-23T03:01:39.721Z,18.5
2018-03-23T03:02:39.723Z,18.5
2018-03-23T03:03:39.689Z,18.25
2018-03-23T03:04:39.783Z,18.5
2018-03-23T03:05:39.730Z,18.5
2018-03-23T03:06:39.733Z,18.25
2018-03-23T03:07:39.739Z,18.5
2018-03-23T03:08:39.702Z,18.5
2018-03-23T03:09:39.751Z,18.25
2018-03-23T03:10:39.712Z,18.5
2018-03-23T03:11:39.719Z,18.5
2018-03-23T03:12:39.727Z,18.25
2018-03-23T03:13:39.715Z,18.5
2018-03-23T03:14:39.727Z,18.5
2018-03-23T03:15:39.774Z,18.25
2018-03-23T03:16:39.706Z,18.5
2018-03-23T03:17:39.697Z,18.5
2018-03-23T03:18:39.724Z,18.25
2018-03-23T03:19:39.723Z,18.5
2018-03-23T03:20:39.714Z,18.5
2018-03-23T03:21:39.556Z,18.5
2018-03-23T03:22:39.714Z,18.5
2018-03-23T03:23:39.711Z,18.5
2018-03-23T03:24:39.720Z,18.25
2018-03-23T03:25:39.870Z,18.5
2018-03-23T03:26:39.709Z,18.5
2018-03-23T03:27:39.735Z,18.25
2018-03-23T03:28:39.704Z,18.5
2018-03-23T03:29:39.706Z,18.5
2018-03-23T03:30:39.730Z,18.25
2018-03-23T03:31:39.739Z,18.5
2018-03-23T03:32:39.683Z,18.5
2018-03-23T03:33:39.686Z,18
2018-03-23T03:34:39.716Z,18.5
2018-03-23T03:35:39.734Z,18.5
2018-03-23T03:36:39.671Z,18.25
2018-03-23T03:37:39.718Z,18.5
2018-03-23T03:38:39.736Z,18.5
2018-03-23T03:39:39.692Z,18
2018-03-23T03:40:39.709Z,18.5
2018-03-23T03:41:39.692Z,18.5
2018-03-23T03:42:39.693Z,18
2018-03-23T03:43:39.718Z,18.5
2018-03-23T03:44:39.689Z,18.5
2018-03-23T03:45:39.728Z,18
2018-03-23T03:46:39.710Z,18.25
2018-03-23T03:47:39.763Z,18.5
2018-03-23T03:48:39.678Z,18
2018-03-23T03:49:39.736Z,18.25
2018-03-23T03:50:39.723Z,18.5
2018-03-23T03:51:39.683Z,18
2018-03-23T03:52:39.673Z,18.25
2018-03-23T03:53:39.711Z,18.5
2018-03-23T03:54:39.700Z,18
2018-03-23T03:55:39.705Z,18.25
2018-03-23T03:56:39.677Z,18.5
2018-03-23T03:57:39.696Z,18
2018-03-23T03:58:39.705Z,18.25
2018-03-23T03:59:39.676Z,18.5
2018-03-23T04:00:39.698Z,18
2018-03-23T04:01:39.674Z,18.25
2018-03-23T04:02:39.716Z,18.5
2018-03-23T04:03:39.711Z,18
2018-03-23T04:04:39.686Z,18.25
2018-03-23T04:05:39.655Z,18.25
2018-03-23T04:06:39.686Z,18
2018-03-23T04:07:39.708Z,18.25
2018-03-23T04:08:39.851Z,18.25
2018-03-23T04:09:39.691Z,18
2018-03-23T04:10:39.706Z,18.25
2018-03-23T04:11:39.705Z,18.25
2018-03-23T04:12:39.741Z,18
2018-03-23T04:13:39.702Z,18.25
2018-03-23T04:14:39.696Z,18.25
2018-03-23T04:15:39.715Z,18
2018-03-23T04:16:39.784Z,18.25
2018-03-23T04:17:39.697Z,18.25
2018-03-23T04:18:39.681Z,18
2018-03-23T04:19:39.804Z,18.25
2018-03-23T04:20:39.689Z,18.25
2018-03-23T04:21:39.695Z,18
2018-03-23T04:22:39.696Z,18.25
2018-03-23T04:23:39.686Z,18.25
2018-03-23T04:24:39.673Z,18
2018-03-23T04:25:39.670Z,18.25
2018-03-23T04:26:39.646Z,18.25
2018-03-23T04:27:39.670Z,18
2018-03-23T04:28:39.684Z,18.25
2018-03-23T04:29:39.663Z,18.25
2018-03-23T04:30:39.706Z,18
2018-03-23T04:31:39.692Z,18.25
2018-03-23T04:32:39.678Z,18.25
2018-03-23T04:33:39.715Z,18
2018-03-23T04:34:39.689Z,18.25
2018-03-23T04:35:39.669Z,18.25
2018-03-23T04:36:39.724Z,18
2018-03-23T04:37:39.734Z,18.25
2018-03-23T04:38:39.680Z,18.25
2018-03-23T04:39:39.848Z,18
2018-03-23T04:40:39.673Z,18.25
2018-03-23T04:41:39.710Z,18.25
2018-03-23T04:42:39.699Z,18
2018-03-23T04:43:39.694Z,18.25
2018-03-23T04:44:39.682Z,18.25
2018-03-23T04:45:39.678Z,18
2018-03-23T04:46:39.695Z,18.25
2018-03-23T04:47:39.682Z,18.25
2018-03-23T04:48:39.664Z,18
2018-03-23T04:49:39.686Z,18.25
2018-03-23T04:50:39.673Z,18.25
2018-03-23T04:51:39.658Z,18
2018-03-23T04:52:39.698Z,18.25
2018-03-23T04:53:39.683Z,18.25
2018-03-23T04:54:39.692Z,18
2018-03-23T04:55:39.663Z,18.25
2018-03-23T04:56:39.679Z,18.25
2018-03-23T04:57:39.735Z,18
2018-03-23T04:58:39.668Z,18.25
2018-03-23T04:59:39.666Z,18.25
2018-03-23T05:00:39.666Z,18
2018-03-23T05:01:39.686Z,18.25
2018-03-23T05:02:39.651Z,18.25
2018-03-23T05:03:39.683Z,18
2018-03-23T05:04:39.720Z,18.25
2018-03-23T05:05:39.677Z,18.25
2018-03-23T05:06:39.672Z,18
2018-03-23T05:07:39.721Z,18.25
2018-03-23T05:08:39.670Z,18.25
2018-03-23T05:09:39.670Z,18
2018-03-23T05:10:39.674Z,18.25
2018-03-23T05:11:39.666Z,18.25
2018-03-23T05:12:39.711Z,18
2018-03-23T05:13:39.659Z,18.25
2018-03-23T05:14:39.659Z,18.25
2018-03-23T05:15:39.693Z,18
2018-03-23T05:16:39.658Z,18.25
2018-03-23T05:17:39.690Z,18.25
2018-03-23T05:18:39.658Z,18
2018-03-23T05:19:39.692Z,18.25
2018-03-23T05:20:39.666Z,18.25
2018-03-23T05:21:39.685Z,18
2018-03-23T05:22:39.966Z,18.25
2018-03-23T05:23:39.670Z,18.25
2018-03-23T05:24:39.672Z,18
2018-03-23T05:25:39.688Z,18.25
2018-03-23T05:26:39.662Z,18.25
2018-03-23T05:27:39.687Z,18
2018-03-23T05:28:39.698Z,18.25
2018-03-23T05:29:39.649Z,18.25
2018-03-23T05:30:39.679Z,18.25
2018-03-23T05:31:39.844Z,18.5
2018-03-23T05:32:39.687Z,18.5
2018-03-23T05:33:39.680Z,18.25
2018-03-23T05:34:39.655Z,18.5
2018-03-23T05:35:39.663Z,18.5
2018-03-23T05:36:39.689Z,18.25
2018-03-23T05:37:39.701Z,18.5
2018-03-23T05:38:39.655Z,18.5
2018-03-23T05:39:39.659Z,18.25
2018-03-23T05:40:39.864Z,18.5
2018-03-23T05:41:39.661Z,18.5
2018-03-23T05:42:39.644Z,18.25
2018-03-23T05:43:39.662Z,18.5
2018-03-23T05:44:39.656Z,18.75
2018-03-23T05:45:39.671Z,18.5
2018-03-23T05:46:39.672Z,18.5
2018-03-23T05:47:39.659Z,18.75
2018-03-23T05:48:39.662Z,18.5
2018-03-23T05:49:39.667Z,18.75
2018-03-23T05:50:39.661Z,18.75
2018-03-23T05:51:39.663Z,18.5
2018-03-23T05:52:39.648Z,18.75
2018-03-23T05:53:39.640Z,18.75
2018-03-23T05:54:39.649Z,18.5
2018-03-23T05:55:39.660Z,18.75
2018-03-23T05:56:39.630Z,18.75
2018-03-23T05:57:39.646Z,18.5
2018-03-23T05:58:39.685Z,18.75
2018-03-23T05:59:39.661Z,18.75
2018-03-23T06:00:39.672Z,18.75
2018-03-23T06:01:39.661Z,18.75
2018-03-23T06:02:39.663Z,19
2018-03-23T06:03:39.688Z,18.75
2018-03-23T06:04:39.834Z,19
2018-03-23T06:05:39.642Z,19
2018-03-23T06:06:39.602Z,18.75
2018-03-23T06:07:39.618Z,19
2018-03-23T06:08:39.651Z,19
2018-03-23T06:09:39.661Z,18.75
2018-03-23T06:10:39.644Z,19
2018-03-23T06:11:39.613Z,19
2018-03-23T06:12:39.643Z,18.75
2018-03-23T06:13:39.656Z,19
2018-03-23T06:14:39.644Z,19
2018-03-23T06:15:39.657Z,18.75
2018-03-23T06:16:39.660Z,19
2018-03-23T06:17:39.751Z,19
2018-03-23T06:18:39.668Z,18.75
2018-03-23T06:19:39.656Z,19
2018-03-23T06:20:39.667Z,19
2018-03-23T06:21:39.675Z,19
2018-03-23T06:22:39.853Z,19
2018-03-23T06:23:39.652Z,19.25
2018-03-23T06:24:39.632Z,19
2018-03-23T06:25:39.675Z,19
2018-03-23T06:26:39.652Z,19.25
2018-03-23T06:27:39.674Z,19
2018-03-23T06:28:39.631Z,19
2018-03-23T06:29:39.652Z,19.25
2018-03-23T06:30:39.636Z,19
2018-03-23T06:31:39.636Z,19.25
2018-03-23T06:32:39.651Z,19.25
2018-03-23T06:33:39.637Z,19
2018-03-23T06:34:39.628Z,19.25
2018-03-23T06:35:39.661Z,19.25
2018-03-23T06:36:39.614Z,19
2018-03-23T06:37:39.654Z,19.25
2018-03-23T06:38:39.641Z,19.25
2018-03-23T06:39:39.643Z,19
2018-03-23T06:40:39.620Z,19.25
2018-03-23T06:41:39.628Z,19.25
2018-03-23T06:42:39.692Z,19
2018-03-23T06:43:39.646Z,19.25
2018-03-23T06:44:39.627Z,19.25
2018-03-23T06:45:39.649Z,19
2018-03-23T06:46:39.638Z,19.25
2018-03-23T06:47:39.618Z,19.25
2018-03-23T06:48:39.654Z,19
2018-03-23T06:49:39.663Z,19.25
2018-03-23T06:50:39.632Z,19.5
2018-03-23T06:51:39.614Z,19.25
2018-03-23T06:52:39.664Z,19.25
2018-03-23T06:53:39.625Z,19.25
2018-03-23T06:54:39.616Z,19.25
2018-03-23T06:55:39.757Z,19.25
2018-03-23T06:56:39.630Z,19.5
2018-03-23T06:57:39.623Z,19.25
2018-03-23T06:58:39.650Z,19.5
2018-03-23T06:59:39.653Z,19.5
2018-03-23T07:00:39.652Z,19.25
2018-03-23T07:01:39.662Z,19.25
2018-03-23T07:02:39.652Z,19.5
2018-03-23T07:03:39.617Z,19.25
2018-03-23T07:04:39.618Z,19.5
2018-03-23T07:05:39.630Z,19.5
2018-03-23T07:06:39.629Z,19.25
2018-03-23T07:07:39.617Z,19.5
2018-03-23T07:08:39.633Z,19.5
2018-03-23T07:09:39.645Z,19.25
2018-03-23T07:10:39.634Z,19.5
2018-03-23T07:11:39.622Z,19.5
2018-03-23T07:12:39.633Z,19.25
2018-03-23T07:13:39.640Z,19.5
2018-03-23T07:14:39.612Z,19.5
2018-03-23T07:15:39.636Z,19.25
2018-03-23T07:16:39.667Z,19.5
2018-03-23T07:17:39.634Z,19.5
2018-03-23T07:18:39.693Z,19.25
2018-03-23T07:19:39.634Z,19.5
2018-03-23T07:20:39.608Z,19.5
2018-03-23T07:21:39.667Z,19.25
2018-03-23T07:22:39.626Z,19.5
2018-03-23T07:23:39.620Z,19.5
2018-03-23T07:24:39.625Z,19.25
2018-03-23T07:25:39.632Z,19.5
2018-03-23T07:26:39.673Z,19.5
2018-03-23T07:27:39.641Z,19.25
2018-03-23T07:28:39.648Z,19.5
2018-03-23T07:29:39.634Z,19.5
2018-03-23T07:30:39.639Z,19.25
2018-03-23T07:31:39.661Z,19.5
2018-03-23T07:32:39.628Z,19.5
2018-03-23T07:33:39.643Z,19.25
2018-03-23T07:34:39.615Z,19.5
2018-03-23T07:35:39.624Z,19.5
2018-03-23T07:36:39.630Z,19.25
2018-03-23T07:37:39.840Z,19.5
2018-03-23T07:38:39.631Z,19.5
2018-03-23T07:39:39.637Z,19.25
2018-03-23T07:40:39.631Z,19.5
2018-03-23T07:41:39.618Z,19.5
2018-03-23T07:42:39.649Z,19.25
2018-03-23T07:43:39.618Z,19.5
2018-03-23T07:44:39.646Z,19.5
2018-03-23T07:45:39.632Z,19.25
2018-03-23T07:46:39.655Z,19.5
2018-03-23T07:47:39.620Z,19.5
2018-03-23T07:48:39.646Z,19.25
2018-03-23T07:49:39.636Z,19.5
2018-03-23T07:50:39.603Z,19.5
2018-03-23T07:51:39.641Z,19.25
2018-03-23T07:52:39.631Z,19.5
2018-03-23T07:53:39.623Z,19.5
2018-03-23T07:54:39.630Z,19.25
2018-03-23T07:55:39.617Z,19.5
2018-03-23T07:56:39.605Z,19.5
2018-03-23T07:57:39.635Z,19.25
2018-03-23T07:58:39.618Z,19.5
2018-03-23T07:59:39.618Z,19.5
2018-03-23T08:00:39.626Z,19.25
2018-03-23T08:01:39.666Z,19.5
2018-03-23T08:02:39.589Z,19.5
2018-03-23T08:03:39.592Z,19.25
2018-03-23T08:04:39.626Z,19.5
2018-03-23T08:05:39.601Z,19.5
2018-03-23T08:06:39.616Z,19.25
2018-03-23T08:07:39.633Z,19.5
2018-03-23T08:08:39.615Z,19.5
2018-03-23T08:09:39.603Z,19.5
2018-03-23T08:10:39.590Z,19.5
2018-03-23T08:11:39.614Z,19.5
2018-03-23T08:12:39.621Z,19.5
2018-03-23T08:13:39.628Z,19.5
2018-03-23T08:14:39.614Z,19.75
2018-03-23T08:15:39.592Z,19.5
2018-03-23T08:16:39.637Z,19.75
2018-03-23T08:17:39.609Z,19.75
2018-03-23T08:18:39.725Z,19.5
2018-03-23T08:19:39.644Z,19.75
2018-03-23T08:20:39.607Z,19.75
2018-03-23T08:21:39.637Z,19.5
2018-03-23T08:22:39.631Z,19.75
2018-03-23T08:23:39.587Z,19.75
2018-03-23T08:24:39.655Z,19.5
2018-03-23T08:25:39.614Z,19.75
2018-03-23T08:26:39.604Z,19.75
2018-03-23T08:27:39.635Z,19.5
2018-03-23T08:28:39.608Z,19.75
2018-03-23T08:29:39.616Z,19.75
2018-03-23T08:30:39.592Z,19.5
2018-03-23T08:31:39.617Z,19.75
2018-03-23T08:32:39.625Z,19.75
2018-03-23T08:33:39.592Z,19.5
2018-03-23T08:34:39.618Z,19.75
2018-03-23T08:35:39.588Z,19.75
2018-03-23T08:36:39.633Z,19.5
2018-03-23T08:37:39.643Z,19.75
2018-03-23T08:38:39.619Z,19.75
2018-03-23T08:39:39.586Z,19.5
2018-03-23T08:40:39.601Z,19.75
2018-03-23T08:41:39.601Z,19.75
2018-03-23T08:42:39.637Z,19.5
2018-03-23T08:43:39.633Z,19.75
2018-03-23T08:44:39.783Z,19.75
2018-03-23T08:45:39.619Z,19.5
2018-03-23T08:46:39.609Z,19.75
2018-03-23T08:47:39.794Z,19.75
2018-03-23T08:48:39.602Z,19.5
2018-03-23T08:49:39.611Z,19.75
2018-03-23T08:50:39.572Z,19.75
2018-03-23T08:51:39.583Z,19.5
2018-03-23T08:52:39.622Z,19.75
2018-03-23T08:53:39.587Z,19.75
2018-03-23T08:54:39.556Z,19.5
2018-03-23T08:55:39.582Z,19.75
2018-03-23T08:56:39.601Z,19.75
2018-03-23T08:57:39.699Z,19.75
2018-03-23T08:58:39.603Z,19.75
2018-03-23T08:59:39.591Z,19.75
2018-03-23T09:00:39.614Z,19.75
2018-03-23T09:01:39.590Z,19.75
2018-03-23T09:02:39.617Z,20
2018-03-23T09:03:39.616Z,19.75
2018-03-23T09:04:39.584Z,19.75
2018-03-23T09:05:39.643Z,20
2018-03-23T09:06:39.589Z,19.75
2018-03-23T09:07:39.602Z,20
2018-03-23T09:08:39.587Z,20
2018-03-23T09:09:39.955Z,19.75
2018-03-23T09:10:39.596Z,20
2018-03-23T09:11:39.567Z,20
2018-03-23T09:12:39.574Z,19.75
2018-03-23T09:13:39.595Z,20
2018-03-23T09:14:39.595Z,20
2018-03-23T09:15:39.605Z,19.75
2018-03-23T09:16:39.842Z,20
2018-03-23T09:17:39.604Z,20
2018-03-23T09:18:39.558Z,19.75
2018-03-23T09:19:39.591Z,20
2018-03-23T09:20:39.563Z,20
2018-03-23T09:21:39.587Z,19.75
2018-03-23T09:22:39.586Z,20
2018-03-23T09:23:39.638Z,20
2018-03-23T09:24:39.599Z,19.75
2018-03-23T09:25:39.577Z,20
2018-03-23T09:26:39.586Z,20
2018-03-23T09:27:39.574Z,19.75
2018-03-23T09:28:39.574Z,20
2018-03-23T09:29:39.574Z,20
2018-03-23T09:30:39.597Z,19.75
2018-03-23T09:31:39.564Z,20
2018-03-23T09:32:39.585Z,20
2018-03-23T09:33:39.598Z,19.75
2018-03-23T09:34:39.595Z,20
2018-03-23T09:35:39.573Z,20
2018-03-23T09:36:39.605Z,19.75
2018-03-23T09:37:39.582Z,20
2018-03-23T09:38:39.578Z,20
2018-03-23T09:39:39.614Z,19.75
2018-03-23T09:40:39.570Z,20
2018-03-23T09:41:39.595Z,20
2018-03-23T09:42:39.599Z,19.75
2018-03-23T09:43:39.568Z,20
2018-03-23T09:44:39.566Z,20
2018-03-23T09:45:39.551Z,19.75
2018-03-23T09:46:39.580Z,20
2018-03-23T09:47:39.570Z,20
2018-03-23T09:48:39.694Z,19.75
2018-03-23T09:49:39.611Z,20
2018-03-23T09:50:39.569Z,20
2018-03-23T09:51:39.612Z,19.75
2018-03-23T09:52:39.593Z,20
2018-03-23T09:53:39.581Z,20
2018-03-23T09:54:39.575Z,19.75
2018-03-23T09:55:39.575Z,20
2018-03-23T09:56:39.580Z,20
2018-03-23T09:57:39.624Z,19.75
2018-03-23T09:58:39.584Z,20
2018-03-23T09:59:39.560Z,20
2018-03-23T10:00:39.570Z,19.75
2018-03-23T10:01:39.570Z,20
2018-03-23T10:02:39.605Z,20
2018-03-23T10:03:39.854Z,19.75
2018-03-23T10:04:39.564Z,20
2018-03-23T10:05:39.559Z,20
2018-03-23T10:06:39.543Z,19.75
2018-03-23T10:07:39.617Z,20
2018-03-23T10:08:39.581Z,20
2018-03-23T10:09:39.580Z,19.75
2018-03-23T10:10:39.562Z,20
2018-03-23T10:11:39.571Z,20
2018-03-23T10:12:39.589Z,19.75
2018-03-23T10:13:39.606Z,20
2018-03-23T10:14:39.559Z,20
2018-03-23T10:15:39.597Z,19.75
2018-03-23T10:16:39.542Z,20
2018-03-23T10:17:39.579Z,20
2018-03-23T10:18:39.541Z,19.75
2018-03-23T10:19:39.653Z,20
2018-03-23T10:20:39.692Z,20
2018-03-23T10:21:39.737Z,19.75
2018-03-23T10:22:39.615Z,20
2018-03-23T10:23:39.566Z,20
2018-03-23T10:24:39.564Z,19.75
2018-03-23T10:25:39.580Z,20
2018-03-23T10:26:39.569Z,20
2018-03-23T10:27:39.569Z,19.75
2018-03-23T10:28:39.818Z,20
2018-03-23T10:29:39.565Z,20.25
2018-03-23T10:30:39.550Z,20
2018-03-23T10:31:39.577Z,20
2018-03-23T10:32:39.557Z,20.25
2018-03-23T10:33:39.716Z,19.75
2018-03-23T10:34:39.578Z,20
2018-03-23T10:35:39.573Z,20
2018-03-23T10:36:39.561Z,19.75
2018-03-23T10:37:39.581Z,20
2018-03-23T10:38:39.602Z,20.25
2018-03-23T10:39:39.591Z,20
2018-03-23T10:40:39.576Z,20
2018-03-23T10:41:39.567Z,20
2018-03-23T10:42:39.556Z,20
2018-03-23T10:43:39.557Z,20
2018-03-23T10:44:39.558Z,20.25
2018-03-23T10:45:39.563Z,20
2018-03-23T10:46:39.627Z,20.25
2018-03-23T10:47:39.552Z,20.25
2018-03-23T10:48:39.541Z,20
2018-03-23T10:49:39.562Z,20
2018-03-23T10:50:39.560Z,20.25
2018-03-23T10:51:39.574Z,20
2018-03-23T10:52:39.694Z,20
2018-03-23T10:53:39.549Z,20.25
2018-03-23T10:54:39.566Z,20
2018-03-23T10:55:39.571Z,20.25
2018-03-23T10:56:39.545Z,20.25
2018-03-23T10:57:39.529Z,20
2018-03-23T10:58:39.552Z,20.25
2018-03-23T10:59:39.552Z,20.25
2018-03-23T11:00:39.606Z,20
2018-03-23T11:01:39.549Z,20.25
2018-03-23T11:02:39.554Z,20.25
2018-03-23T11:03:39.586Z,20
2018-03-23T11:04:39.550Z,20.25
2018-03-23T11:05:39.542Z,20.25
2018-03-23T11:06:39.543Z,20
2018-03-23T11:07:39.537Z,20.25
2018-03-23T11:08:39.551Z,20.25
2018-03-23T11:09:39.575Z,20
2018-03-23T11:10:39.580Z,20.25
2018-03-23T11:11:39.564Z,20.25
2018-03-23T11:12:39.544Z,20
2018-03-23T11:13:39.558Z,20.25
2018-03-23T11:14:39.543Z,20.25
2018-03-23T11:15:39.542Z,20
2018-03-23T11:16:39.530Z,20.25
2018-03-23T11:17:39.540Z,20.25
2018-03-23T11:18:39.579Z,20
2018-03-23T11:19:39.541Z,20.25
2018-03-23T11:20:39.563Z,20.25
2018-03-23T11:21:39.536Z,20
2018-03-23T11:22:39.543Z,20.25
2018-03-23T11:23:39.554Z,20.25
2018-03-23T11:24:39.540Z,20
2018-03-23T11:25:39.534Z,20.25
2018-03-23T11:26:39.531Z,20.25
2018-03-23T11:27:39.500Z,20
2018-03-23T11:28:39.552Z,20.25
2018-03-23T11:29:39.532Z,20.25
2018-03-23T11:30:39.529Z,20
2018-03-23T11:31:39.502Z,20.25
2018-03-23T11:32:39.538Z,20.25
2018-03-23T11:33:39.541Z,20
2018-03-23T11:34:39.551Z,20.25
2018-03-23T11:35:39.535Z,20.25
2018-03-23T11:36:39.535Z,20
2018-03-23T11:37:39.531Z,20.25
2018-03-23T11:38:39.598Z,20.25
2018-03-23T11:39:39.533Z,20
2018-03-23T11:40:39.551Z,20.25
2018-03-23T11:41:39.531Z,20.25
2018-03-23T11:42:39.546Z,20
2018-03-23T11:43:39.544Z,20.25
2018-03-23T11:44:39.539Z,20.25
2018-03-23T11:45:39.523Z,20
2018-03-23T11:46:39.531Z,20.25
2018-03-23T11:47:39.543Z,20.25
2018-03-23T11:48:39.547Z,20
2018-03-23T11:49:39.534Z,20.25
2018-03-23T11:50:39.676Z,20.25
2018-03-23T11:51:39.532Z,20
2018-03-23T11:52:39.557Z,20.25
2018-03-23T11:53:39.547Z,20.25
2018-03-23T11:54:39.527Z,20
2018-03-23T11:55:39.548Z,20.25
2018-03-23T11:56:39.496Z,20.25
2018-03-23T11:57:39.545Z,20
2018-03-23T11:58:39.505Z,20.25
2018-03-23T11:59:39.539Z,20.25
2018-03-23T12:00:39.523Z,20
2018-03-23T12:01:39.519Z,20.25
2018-03-23T12:02:39.517Z,20.25
2018-03-23T12:03:39.519Z,20
2018-03-23T12:04:39.529Z,20.25
2018-03-23T12:05:39.556Z,20.25
2018-03-23T12:06:39.555Z,20
2018-03-23T12:07:39.530Z,20.25
2018-03-23T12:08:39.543Z,20.25
2018-03-23T12:09:39.536Z,20
2018-03-23T12:10:39.544Z,20.25
2018-03-23T12:11:39.536Z,20.25
2018-03-23T12:12:39.537Z,20
2018-03-23T12:13:39.505Z,20.25
2018-03-23T12:14:39.526Z,20.25
2018-03-23T12:15:39.558Z,20
2018-03-23T12:16:39.579Z,20.25
2018-03-23T12:17:39.547Z,20.25
2018-03-23T12:18:39.582Z,20
2018-03-23T12:19:39.533Z,20.25
2018-03-23T12:20:39.775Z,20.25
2018-03-23T12:21:39.577Z,20
2018-03-23T12:22:39.528Z,20.25
2018-03-23T12:23:39.529Z,20.25
2018-03-23T12:24:39.556Z,20
2018-03-23T12:25:39.526Z,20.25
2018-03-23T12:26:39.501Z,20.25
2018-03-23T12:27:39.526Z,20
2018-03-23T12:28:39.533Z,20.25
2018-03-23T12:29:39.507Z,20.25
2018-03-23T12:30:39.566Z,20
2018-03-23T12:31:39.538Z,20.25
2018-03-23T12:32:39.514Z,20.25
2018-03-23T12:33:39.526Z,20
2018-03-23T12:34:39.544Z,20.25
2018-03-23T12:35:39.517Z,20.25
2018-03-23T12:36:39.519Z,20
2018-03-23T12:37:39.532Z,20.25
2018-03-23T12:38:39.522Z,20.25
2018-03-23T12:39:39.530Z,20
2018-03-23T12:40:39.550Z,20.25
2018-03-23T12:41:39.517Z,20.25
2018-03-23T12:42:39.514Z,20
2018-03-23T12:43:39.811Z,20.25
2018-03-23T12:44:39.520Z,20.25
2018-03-23T12:45:39.737Z,20
2018-03-23T12:46:39.562Z,20.25
2018-03-23T12:47:39.543Z,20.25
2018-03-23T12:48:39.510Z,20
2018-03-23T12:49:39.525Z,20.25
2018-03-23T12:50:39.519Z,20.25
2018-03-23T12:51:39.520Z,20
2018-03-23T12:52:39.511Z,20.25
2018-03-23T12:53:39.516Z,20.25
2018-03-23T12:54:39.513Z,20
2018-03-23T12:55:39.527Z,20.25
2018-03-23T12:56:39.527Z,20.25
2018-03-23T12:57:39.515Z,20
2018-03-23T12:58:39.524Z,20.25
2018-03-23T12:59:39.509Z,20.25
2018-03-23T13:00:39.525Z,20
2018-03-23T13:01:39.546Z,20.25
2018-03-23T13:02:39.524Z,20.25
2018-03-23T13:03:39.579Z,20
2018-03-23T13:04:39.546Z,20.25
2018-03-23T13:05:39.495Z,20.25
2018-03-23T13:06:39.504Z,20.25
2018-03-23T13:07:39.523Z,20.25
2018-03-23T13:08:39.516Z,20.25
2018-03-23T13:09:39.544Z,20.25
2018-03-23T13:10:39.486Z,20.25
2018-03-23T13:11:39.491Z,20.5
2018-03-23T13:12:39.533Z,20.25
2018-03-23T13:13:39.540Z,20.25
2018-03-23T13:14:39.490Z,20.5
2018-03-23T13:15:39.524Z,20.25
2018-03-23T13:16:39.555Z,20.25
2018-03-23T13:17:39.518Z,20.5
2018-03-23T13:18:39.505Z,20.25